sensor_id;sensor_type;location;lat;lon;timestamp;P1;durP1;ratioP1;P2;durP2;ratioP2
20865;SDS011;10593;48.398;10.698;2023-04-03T00:00:05;2.23;;;2.03;;
20865;SDS011;10593;48.398;10.698;2023-04-03T00:02:32;2.53;;;2.40;;
20865;SDS011;10593;48.398;10.698;2023-04-03T00:04:57;2.50;;;2.40;;
20865;SDS011;10593;48.398;10.698;2023-04-03T00:07:23;2.33;;;2.23;;
20865;SDS011;10593;48.398;10.698;2023-04-03T00:09:48;2.23;;;2.03;;
20865;SDS011;10593;48.398;10.698;2023-04-03T00:12:14;2.47;;;2.27;;
20865;SDS011;10593;48.398;10.698;2023-04-03T00:14:40;2.47;;;2.27;;
20865;SDS011;10593;48.398;10.698;2023-04-03T00:17:06;2.40;;;2.30;;
20865;SDS011;10593;48.398;10.698;2023-04-03T00:19:32;2.40;;;2.30;;
20865;SDS011;10593;48.398;10.698;2023-04-03T00:21:57;2.30;;;2.17;;
20865;SDS011;10593;48.398;10.698;2023-04-03T00:24:23;2.63;;;2.47;;
20865;SDS011;10593;48.398;10.698;2023-04-03T00:26:49;2.40;;;2.20;;
20865;SDS011;10593;48.398;10.698;2023-04-03T00:29:14;2.60;;;2.40;;
20865;SDS011;10593;48.398;10.698;2023-04-03T00:31:40;2.30;;;2.20;;
20865;SDS011;10593;48.398;10.698;2023-04-03T00:34:06;2.20;;;2.10;;
20865;SDS011;10593;48.398;10.698;2023-04-03T00:36:31;2.60;;;2.40;;
20865;SDS011;10593;48.398;10.698;2023-04-03T00:38:57;2.80;;;2.50;;
20865;SDS011;10593;48.398;10.698;2023-04-03T00:41:23;2.33;;;2.23;;
20865;SDS011;10593;48.398;10.698;2023-04-03T00:43:48;2.40;;;2.30;;
20865;SDS011;10593;48.398;10.698;2023-04-03T00:46:14;2.37;;;2.27;;
20865;SDS011;10593;48.398;10.698;2023-04-03T00:48:43;2.33;;;2.23;;
20865;SDS011;10593;48.398;10.698;2023-04-03T00:51:19;1.77;;;1.67;;
20865;SDS011;10593;48.398;10.698;2023-04-03T00:53:53;1.80;;;1.70;;
20865;SDS011;10593;48.398;10.698;2023-04-03T00:56:28;2.03;;;1.93;;
20865;SDS011;10593;48.398;10.698;2023-04-03T01:01:32;2.60;;;2.17;;
20865;SDS011;10593;48.398;10.698;2023-04-03T01:03:59;2.50;;;2.30;;
20865;SDS011;10593;48.398;10.698;2023-04-03T01:06:27;1.90;;;1.80;;
20865;SDS011;10593;48.398;10.698;2023-04-03T01:08:57;2.20;;;2.00;;
20865;SDS011;10593;48.398;10.698;2023-04-03T01:11:24;2.10;;;2.00;;
20865;SDS011;10593;48.398;10.698;2023-04-03T01:13:51;2.00;;;1.90;;
20865;SDS011;10593;48.398;10.698;2023-04-03T01:16:17;2.43;;;2.00;;
20865;SDS011;10593;48.398;10.698;2023-04-03T01:18:43;1.80;;;1.70;;
20865;SDS011;10593;48.398;10.698;2023-04-03T01:21:23;2.00;;;1.90;;
20865;SDS011;10593;48.398;10.698;2023-04-03T01:24:11;1.90;;;1.80;;
20865;SDS011;10593;48.398;10.698;2023-04-03T01:26:56;1.73;;;1.63;;
20865;SDS011;10593;48.398;10.698;2023-04-03T01:29:23;2.00;;;1.90;;
20865;SDS011;10593;48.398;10.698;2023-04-03T01:31:55;1.77;;;1.67;;
20865;SDS011;10593;48.398;10.698;2023-04-03T01:34:24;2.00;;;1.90;;
20865;SDS011;10593;48.398;10.698;2023-04-03T01:36:51;2.20;;;2.10;;
20865;SDS011;10593;48.398;10.698;2023-04-03T01:39:17;2.13;;;1.90;;
20865;SDS011;10593;48.398;10.698;2023-04-03T01:41:43;1.67;;;1.57;;
20865;SDS011;10593;48.398;10.698;2023-04-03T01:44:09;1.77;;;1.60;;
20865;SDS011;10593;48.398;10.698;2023-04-03T01:46:35;1.53;;;1.40;;
20865;SDS011;10593;48.398;10.698;2023-04-03T01:49:02;1.90;;;1.80;;
20865;SDS011;10593;48.398;10.698;2023-04-03T01:51:29;1.87;;;1.73;;
20865;SDS011;10593;48.398;10.698;2023-04-03T01:53:55;1.83;;;1.73;;
20865;SDS011;10593;48.398;10.698;2023-04-03T01:56:21;1.70;;;1.60;;
20865;SDS011;10593;48.398;10.698;2023-04-03T01:58:47;1.67;;;1.57;;
20865;SDS011;10593;48.398;10.698;2023-04-03T02:01:13;1.80;;;1.70;;
20865;SDS011;10593;48.398;10.698;2023-04-03T02:03:38;1.60;;;1.50;;
20865;SDS011;10593;48.398;10.698;2023-04-03T02:06:04;2.00;;;1.80;;
20865;SDS011;10593;48.398;10.698;2023-04-03T02:08:30;2.10;;;2.00;;
20865;SDS011;10593;48.398;10.698;2023-04-03T02:10:56;1.60;;;1.50;;
20865;SDS011;10593;48.398;10.698;2023-04-03T02:13:22;1.60;;;1.50;;
20865;SDS011;10593;48.398;10.698;2023-04-03T02:15:47;1.60;;;1.50;;
20865;SDS011;10593;48.398;10.698;2023-04-03T02:18:13;1.70;;;1.60;;
20865;SDS011;10593;48.398;10.698;2023-04-03T02:20:40;1.60;;;1.50;;
20865;SDS011;10593;48.398;10.698;2023-04-03T02:23:05;1.53;;;1.43;;
20865;SDS011;10593;48.398;10.698;2023-04-03T02:25:31;1.53;;;1.43;;
20865;SDS011;10593;48.398;10.698;2023-04-03T02:27:57;1.70;;;1.60;;
20865;SDS011;10593;48.398;10.698;2023-04-03T02:30:23;1.70;;;1.60;;
20865;SDS011;10593;48.398;10.698;2023-04-03T02:32:50;1.50;;;1.40;;
20865;SDS011;10593;48.398;10.698;2023-04-03T02:35:15;1.60;;;1.50;;
20865;SDS011;10593;48.398;10.698;2023-04-03T02:37:41;1.40;;;1.30;;
20865;SDS011;10593;48.398;10.698;2023-04-03T02:40:07;1.30;;;1.30;;
20865;SDS011;10593;48.398;10.698;2023-04-03T02:42:33;1.60;;;1.50;;
20865;SDS011;10593;48.398;10.698;2023-04-03T02:44:59;1.70;;;1.60;;
20865;SDS011;10593;48.398;10.698;2023-04-03T02:47:28;1.80;;;1.70;;
20865;SDS011;10593;48.398;10.698;2023-04-03T02:49:53;1.80;;;1.70;;
20865;SDS011;10593;48.398;10.698;2023-04-03T02:52:19;1.83;;;1.73;;
20865;SDS011;10593;48.398;10.698;2023-04-03T02:54:46;1.53;;;1.43;;
20865;SDS011;10593;48.398;10.698;2023-04-03T02:57:12;1.50;;;1.40;;
20865;SDS011;10593;48.398;10.698;2023-04-03T02:59:37;1.50;;;1.40;;
20865;SDS011;10593;48.398;10.698;2023-04-03T03:02:07;1.60;;;1.50;;
20865;SDS011;10593;48.398;10.698;2023-04-03T03:04:33;1.53;;;1.43;;
20865;SDS011;10593;48.398;10.698;2023-04-03T03:06:59;1.67;;;1.57;;
20865;SDS011;10593;48.398;10.698;2023-04-03T03:09:26;1.70;;;1.60;;
20865;SDS011;10593;48.398;10.698;2023-04-03T03:11:51;1.80;;;1.70;;
20865;SDS011;10593;48.398;10.698;2023-04-03T03:14:17;1.57;;;1.47;;
20865;SDS011;10593;48.398;10.698;2023-04-03T03:16:43;1.70;;;1.60;;
20865;SDS011;10593;48.398;10.698;2023-04-03T03:19:09;1.80;;;1.70;;
20865;SDS011;10593;48.398;10.698;2023-04-03T03:21:35;1.40;;;1.30;;
20865;SDS011;10593;48.398;10.698;2023-04-03T03:24:01;1.70;;;1.60;;
20865;SDS011;10593;48.398;10.698;2023-04-03T03:26:26;2.33;;;2.13;;
20865;SDS011;10593;48.398;10.698;2023-04-03T03:28:52;1.80;;;1.60;;
20865;SDS011;10593;48.398;10.698;2023-04-03T03:31:18;1.47;;;1.37;;
20865;SDS011;10593;48.398;10.698;2023-04-03T03:33:44;1.47;;;1.37;;
20865;SDS011;10593;48.398;10.698;2023-04-03T03:36:09;1.50;;;1.40;;
20865;SDS011;10593;48.398;10.698;2023-04-03T03:38:35;1.70;;;1.60;;
20865;SDS011;10593;48.398;10.698;2023-04-03T03:41:01;1.70;;;1.50;;
20865;SDS011;10593;48.398;10.698;2023-04-03T03:43:27;1.60;;;1.50;;
20865;SDS011;10593;48.398;10.698;2023-04-03T03:45:54;1.77;;;1.67;;
20865;SDS011;10593;48.398;10.698;2023-04-03T03:48:21;1.83;;;1.60;;
20865;SDS011;10593;48.398;10.698;2023-04-03T03:50:47;1.30;;;1.30;;
20865;SDS011;10593;48.398;10.698;2023-04-03T03:53:13;1.53;;;1.43;;
20865;SDS011;10593;48.398;10.698;2023-04-03T03:55:40;1.60;;;1.50;;
20865;SDS011;10593;48.398;10.698;2023-04-03T03:58:05;1.90;;;1.80;;
20865;SDS011;10593;48.398;10.698;2023-04-03T04:00:31;1.87;;;1.77;;
20865;SDS011;10593;48.398;10.698;2023-04-03T04:02:57;1.73;;;1.63;;
20865;SDS011;10593;48.398;10.698;2023-04-03T04:05:23;1.80;;;1.70;;
20865;SDS011;10593;48.398;10.698;2023-04-03T04:07:49;1.60;;;1.50;;
20865;SDS011;10593;48.398;10.698;2023-04-03T04:10:14;1.50;;;1.40;;
20865;SDS011;10593;48.398;10.698;2023-04-03T04:12:40;1.47;;;1.37;;
20865;SDS011;10593;48.398;10.698;2023-04-03T04:15:06;2.03;;;1.60;;
20865;SDS011;10593;48.398;10.698;2023-04-03T04:17:32;1.70;;;1.60;;
20865;SDS011;10593;48.398;10.698;2023-04-03T04:20:00;1.60;;;1.50;;
20865;SDS011;10593;48.398;10.698;2023-04-03T04:22:27;1.73;;;1.63;;
20865;SDS011;10593;48.398;10.698;2023-04-03T04:24:53;1.50;;;1.40;;
20865;SDS011;10593;48.398;10.698;2023-04-03T04:27:18;2.03;;;1.83;;
20865;SDS011;10593;48.398;10.698;2023-04-03T04:29:44;1.70;;;1.60;;
20865;SDS011;10593;48.398;10.698;2023-04-03T04:32:10;1.80;;;1.70;;
20865;SDS011;10593;48.398;10.698;2023-04-03T04:34:35;1.70;;;1.57;;
20865;SDS011;10593;48.398;10.698;2023-04-03T04:37:02;1.60;;;1.50;;
20865;SDS011;10593;48.398;10.698;2023-04-03T04:39:27;1.77;;;1.60;;
20865;SDS011;10593;48.398;10.698;2023-04-03T04:41:53;1.80;;;1.70;;
20865;SDS011;10593;48.398;10.698;2023-04-03T04:44:19;1.80;;;1.63;;
20865;SDS011;10593;48.398;10.698;2023-04-03T04:46:45;2.37;;;1.60;;
20865;SDS011;10593;48.398;10.698;2023-04-03T04:49:11;1.63;;;1.53;;
20865;SDS011;10593;48.398;10.698;2023-04-03T04:51:36;1.90;;;1.80;;
20865;SDS011;10593;48.398;10.698;2023-04-03T04:54:02;2.00;;;1.80;;
20865;SDS011;10593;48.398;10.698;2023-04-03T04:56:27;1.77;;;1.67;;
20865;SDS011;10593;48.398;10.698;2023-04-03T04:58:53;1.60;;;1.50;;
20865;SDS011;10593;48.398;10.698;2023-04-03T05:01:19;1.80;;;1.70;;
20865;SDS011;10593;48.398;10.698;2023-04-03T05:03:44;1.63;;;1.53;;
20865;SDS011;10593;48.398;10.698;2023-04-03T05:06:10;1.80;;;1.70;;
20865;SDS011;10593;48.398;10.698;2023-04-03T05:08:36;1.70;;;1.60;;
20865;SDS011;10593;48.398;10.698;2023-04-03T05:11:02;1.60;;;1.50;;
20865;SDS011;10593;48.398;10.698;2023-04-03T05:13:28;2.27;;;1.80;;
20865;SDS011;10593;48.398;10.698;2023-04-03T05:15:53;1.70;;;1.60;;
20865;SDS011;10593;48.398;10.698;2023-04-03T05:18:19;1.67;;;1.50;;
20865;SDS011;10593;48.398;10.698;2023-04-03T05:20:44;2.83;;;1.67;;
20865;SDS011;10593;48.398;10.698;2023-04-03T05:23:13;1.83;;;1.67;;
20865;SDS011;10593;48.398;10.698;2023-04-03T05:25:39;1.70;;;1.60;;
20865;SDS011;10593;48.398;10.698;2023-04-03T05:28:05;1.80;;;1.70;;
20865;SDS011;10593;48.398;10.698;2023-04-03T05:30:32;1.70;;;1.60;;
20865;SDS011;10593;48.398;10.698;2023-04-03T05:32:58;1.60;;;1.50;;
20865;SDS011;10593;48.398;10.698;2023-04-03T05:35:24;2.07;;;1.80;;
20865;SDS011;10593;48.398;10.698;2023-04-03T05:37:50;1.70;;;1.60;;
20865;SDS011;10593;48.398;10.698;2023-04-03T05:40:16;2.33;;;1.60;;
20865;SDS011;10593;48.398;10.698;2023-04-03T05:42:43;1.73;;;1.63;;
20865;SDS011;10593;48.398;10.698;2023-04-03T05:45:09;2.00;;;1.90;;
20865;SDS011;10593;48.398;10.698;2023-04-03T05:47:35;2.40;;;1.70;;
20865;SDS011;10593;48.398;10.698;2023-04-03T05:50:01;1.70;;;1.60;;
20865;SDS011;10593;48.398;10.698;2023-04-03T05:52:28;1.87;;;1.77;;
20865;SDS011;10593;48.398;10.698;2023-04-03T05:54:56;1.93;;;1.80;;
20865;SDS011;10593;48.398;10.698;2023-04-03T05:57:22;1.87;;;1.77;;
20865;SDS011;10593;48.398;10.698;2023-04-03T05:59:48;1.90;;;1.80;;
20865;SDS011;10593;48.398;10.698;2023-04-03T06:02:15;1.67;;;1.57;;
20865;SDS011;10593;48.398;10.698;2023-04-03T06:04:47;1.83;;;1.73;;
20865;SDS011;10593;48.398;10.698;2023-04-03T06:07:17;1.83;;;1.70;;
20865;SDS011;10593;48.398;10.698;2023-04-03T06:09:46;2.00;;;1.80;;
20865;SDS011;10593;48.398;10.698;2023-04-03T06:12:12;1.70;;;1.60;;
20865;SDS011;10593;48.398;10.698;2023-04-03T06:14:38;1.80;;;1.70;;
20865;SDS011;10593;48.398;10.698;2023-04-03T06:17:04;2.07;;;1.87;;
20865;SDS011;10593;48.398;10.698;2023-04-03T06:19:31;2.10;;;2.00;;
20865;SDS011;10593;48.398;10.698;2023-04-03T06:21:56;1.90;;;1.80;;
20865;SDS011;10593;48.398;10.698;2023-04-03T06:24:22;2.83;;;2.20;;
20865;SDS011;10593;48.398;10.698;2023-04-03T06:26:50;1.73;;;1.63;;
20865;SDS011;10593;48.398;10.698;2023-04-03T06:29:17;2.10;;;1.93;;
20865;SDS011;10593;48.398;10.698;2023-04-03T06:31:46;2.30;;;2.10;;
20865;SDS011;10593;48.398;10.698;2023-04-03T06:34:13;2.47;;;2.17;;
20865;SDS011;10593;48.398;10.698;2023-04-03T06:36:40;2.20;;;2.00;;
20865;SDS011;10593;48.398;10.698;2023-04-03T06:39:07;2.00;;;1.90;;
20865;SDS011;10593;48.398;10.698;2023-04-03T06:41:39;2.23;;;2.03;;
20865;SDS011;10593;48.398;10.698;2023-04-03T06:44:05;2.10;;;1.90;;
20865;SDS011;10593;48.398;10.698;2023-04-03T06:46:31;2.60;;;2.33;;
20865;SDS011;10593;48.398;10.698;2023-04-03T06:48:56;1.90;;;1.80;;
20865;SDS011;10593;48.398;10.698;2023-04-03T06:51:23;2.50;;;2.30;;
20865;SDS011;10593;48.398;10.698;2023-04-03T06:53:53;2.20;;;2.10;;
20865;SDS011;10593;48.398;10.698;2023-04-03T06:56:21;1.87;;;1.77;;
20865;SDS011;10593;48.398;10.698;2023-04-03T06:58:47;1.90;;;1.80;;
20865;SDS011;10593;48.398;10.698;2023-04-03T07:01:15;2.10;;;2.00;;
20865;SDS011;10593;48.398;10.698;2023-04-03T07:03:44;1.97;;;1.87;;
20865;SDS011;10593;48.398;10.698;2023-04-03T07:06:12;3.07;;;2.30;;
20865;SDS011;10593;48.398;10.698;2023-04-03T07:08:40;2.00;;;1.90;;
20865;SDS011;10593;48.398;10.698;2023-04-03T07:11:07;2.30;;;2.07;;
20865;SDS011;10593;48.398;10.698;2023-04-03T07:13:34;2.17;;;2.00;;
20865;SDS011;10593;48.398;10.698;2023-04-03T07:16:01;2.07;;;1.90;;
20865;SDS011;10593;48.398;10.698;2023-04-03T07:18:28;2.20;;;2.10;;
20865;SDS011;10593;48.398;10.698;2023-04-03T07:20:54;2.20;;;2.00;;
20865;SDS011;10593;48.398;10.698;2023-04-03T07:23:20;2.27;;;2.00;;
20865;SDS011;10593;48.398;10.698;2023-04-03T07:25:47;2.73;;;2.07;;
20865;SDS011;10593;48.398;10.698;2023-04-03T07:28:15;2.23;;;2.10;;
20865;SDS011;10593;48.398;10.698;2023-04-03T07:30:45;2.30;;;2.10;;
20865;SDS011;10593;48.398;10.698;2023-04-03T07:33:14;2.00;;;1.90;;
20865;SDS011;10593;48.398;10.698;2023-04-03T07:35:42;1.93;;;1.80;;
20865;SDS011;10593;48.398;10.698;2023-04-03T07:38:09;2.23;;;2.07;;
20865;SDS011;10593;48.398;10.698;2023-04-03T07:40:35;2.00;;;1.80;;
20865;SDS011;10593;48.398;10.698;2023-04-03T07:43:02;2.30;;;2.10;;
20865;SDS011;10593;48.398;10.698;2023-04-03T07:45:28;1.90;;;1.80;;
20865;SDS011;10593;48.398;10.698;2023-04-03T07:47:54;2.13;;;2.00;;
20865;SDS011;10593;48.398;10.698;2023-04-03T07:50:20;2.10;;;1.87;;
20865;SDS011;10593;48.398;10.698;2023-04-03T07:52:47;1.83;;;1.73;;
20865;SDS011;10593;48.398;10.698;2023-04-03T07:55:13;2.20;;;1.70;;
20865;SDS011;10593;48.398;10.698;2023-04-03T07:57:39;2.73;;;2.00;;
20865;SDS011;10593;48.398;10.698;2023-04-03T08:00:06;1.97;;;1.87;;
20865;SDS011;10593;48.398;10.698;2023-04-03T08:02:33;2.00;;;1.90;;
20865;SDS011;10593;48.398;10.698;2023-04-03T08:04:59;2.10;;;1.90;;
20865;SDS011;10593;48.398;10.698;2023-04-03T08:07:25;2.20;;;1.90;;
20865;SDS011;10593;48.398;10.698;2023-04-03T08:09:51;2.00;;;1.80;;
20865;SDS011;10593;48.398;10.698;2023-04-03T08:12:17;2.27;;;2.10;;
20865;SDS011;10593;48.398;10.698;2023-04-03T08:14:43;2.07;;;1.97;;
20865;SDS011;10593;48.398;10.698;2023-04-03T08:17:09;2.20;;;2.10;;
20865;SDS011;10593;48.398;10.698;2023-04-03T08:19:37;2.27;;;1.90;;
20865;SDS011;10593;48.398;10.698;2023-04-03T08:22:04;2.60;;;2.17;;
20865;SDS011;10593;48.398;10.698;2023-04-03T08:24:30;2.20;;;2.00;;
20865;SDS011;10593;48.398;10.698;2023-04-03T08:26:59;2.37;;;1.93;;
20865;SDS011;10593;48.398;10.698;2023-04-03T08:29:25;4.27;;;2.30;;
20865;SDS011;10593;48.398;10.698;2023-04-03T08:31:52;2.37;;;2.27;;
20865;SDS011;10593;48.398;10.698;2023-04-03T08:34:18;1.90;;;1.80;;
20865;SDS011;10593;48.398;10.698;2023-04-03T08:36:44;2.20;;;2.00;;
20865;SDS011;10593;48.398;10.698;2023-04-03T08:39:10;2.10;;;2.00;;
20865;SDS011;10593;48.398;10.698;2023-04-03T08:41:37;2.33;;;1.90;;
20865;SDS011;10593;48.398;10.698;2023-04-03T08:44:11;1.90;;;1.80;;
20865;SDS011;10593;48.398;10.698;2023-04-03T08:49:59;2.10;;;1.90;;
20865;SDS011;10593;48.398;10.698;2023-04-03T08:52:38;2.47;;;2.30;;
20865;SDS011;10593;48.398;10.698;2023-04-03T08:55:24;2.43;;;2.07;;
20865;SDS011;10593;48.398;10.698;2023-04-03T08:58:01;1.87;;;1.77;;
20865;SDS011;10593;48.398;10.698;2023-04-03T09:03:20;2.00;;;1.80;;
20865;SDS011;10593;48.398;10.698;2023-04-03T09:05:51;2.00;;;1.90;;
20865;SDS011;10593;48.398;10.698;2023-04-03T09:11:25;2.57;;;2.00;;
20865;SDS011;10593;48.398;10.698;2023-04-03T09:14:13;2.33;;;2.13;;
20865;SDS011;10593;48.398;10.698;2023-04-03T09:17:03;2.30;;;2.20;;
20865;SDS011;10593;48.398;10.698;2023-04-03T09:25:47;2.10;;;2.00;;
20865;SDS011;10593;48.398;10.698;2023-04-03T09:28:19;2.30;;;2.10;;
20865;SDS011;10593;48.398;10.698;2023-04-03T09:30:45;2.17;;;2.07;;
20865;SDS011;10593;48.398;10.698;2023-04-03T09:33:11;2.13;;;2.00;;
20865;SDS011;10593;48.398;10.698;2023-04-03T09:35:39;2.03;;;1.93;;
20865;SDS011;10593;48.398;10.698;2023-04-03T09:40:35;2.43;;;2.00;;
20865;SDS011;10593;48.398;10.698;2023-04-03T09:45:49;2.40;;;2.20;;
20865;SDS011;10593;48.398;10.698;2023-04-03T09:48:18;2.90;;;2.03;;
20865;SDS011;10593;48.398;10.698;2023-04-03T09:53:32;2.20;;;2.00;;
20865;SDS011;10593;48.398;10.698;2023-04-03T09:58:49;2.37;;;2.13;;
20865;SDS011;10593;48.398;10.698;2023-04-03T10:06:47;2.47;;;1.90;;
20865;SDS011;10593;48.398;10.698;2023-04-03T10:12:12;2.40;;;1.70;;
20865;SDS011;10593;48.398;10.698;2023-04-03T10:17:43;2.00;;;1.90;;
20865;SDS011;10593;48.398;10.698;2023-04-03T10:23:15;1.90;;;1.80;;
20865;SDS011;10593;48.398;10.698;2023-04-03T10:25:58;2.13;;;2.03;;
20865;SDS011;10593;48.398;10.698;2023-04-03T10:28:51;1.97;;;1.67;;
20865;SDS011;10593;48.398;10.698;2023-04-03T10:31:29;2.17;;;2.00;;
20865;SDS011;10593;48.398;10.698;2023-04-03T10:34:24;1.90;;;1.80;;
20865;SDS011;10593;48.398;10.698;2023-04-03T10:46:23;1.93;;;1.73;;
20865;SDS011;10593;48.398;10.698;2023-04-03T10:52:02;3.37;;;2.00;;
20865;SDS011;10593;48.398;10.698;2023-04-03T10:55:20;2.03;;;1.90;;
20865;SDS011;10593;48.398;10.698;2023-04-03T10:58:09;1.77;;;1.67;;
20865;SDS011;10593;48.398;10.698;2023-04-03T11:00:51;1.80;;;1.70;;
20865;SDS011;10593;48.398;10.698;2023-04-03T11:03:35;1.83;;;1.73;;
20865;SDS011;10593;48.398;10.698;2023-04-03T11:06:07;1.80;;;1.70;;
20865;SDS011;10593;48.398;10.698;2023-04-03T11:08:42;2.30;;;1.90;;
20865;SDS011;10593;48.398;10.698;2023-04-03T11:11:16;1.97;;;1.80;;
20865;SDS011;10593;48.398;10.698;2023-04-03T11:16:35;2.33;;;1.90;;
20865;SDS011;10593;48.398;10.698;2023-04-03T11:19:12;2.33;;;1.93;;
20865;SDS011;10593;48.398;10.698;2023-04-03T11:22:47;1.80;;;1.70;;
20865;SDS011;10593;48.398;10.698;2023-04-03T11:25:03;1.90;;;1.80;;
20865;SDS011;10593;48.398;10.698;2023-04-03T11:27:55;2.33;;;1.97;;
20865;SDS011;10593;48.398;10.698;2023-04-03T11:30:33;2.03;;;1.83;;
20865;SDS011;10593;48.398;10.698;2023-04-03T11:33:21;1.70;;;1.60;;
20865;SDS011;10593;48.398;10.698;2023-04-03T11:36:24;2.30;;;2.10;;
20865;SDS011;10593;48.398;10.698;2023-04-03T11:38:58;1.73;;;1.63;;
20865;SDS011;10593;48.398;10.698;2023-04-03T11:41:38;1.97;;;1.87;;
20865;SDS011;10593;48.398;10.698;2023-04-03T11:44:05;1.80;;;1.70;;
20865;SDS011;10593;48.398;10.698;2023-04-03T11:46:56;2.30;;;2.10;;
20865;SDS011;10593;48.398;10.698;2023-04-03T11:57:50;2.20;;;2.00;;
20865;SDS011;10593;48.398;10.698;2023-04-03T12:03:58;2.20;;;2.10;;
20865;SDS011;10593;48.398;10.698;2023-04-03T12:09:00;2.10;;;2.00;;
20865;SDS011;10593;48.398;10.698;2023-04-03T12:11:46;2.57;;;2.30;;
20865;SDS011;10593;48.398;10.698;2023-04-03T12:14:14;2.47;;;1.77;;
20865;SDS011;10593;48.398;10.698;2023-04-03T12:16:42;1.67;;;1.57;;
20865;SDS011;10593;48.398;10.698;2023-04-03T12:24:29;2.80;;;2.00;;
20865;SDS011;10593;48.398;10.698;2023-04-03T12:40:50;1.50;;;1.40;;
20865;SDS011;10593;48.398;10.698;2023-04-03T12:44:05;2.13;;;1.50;;
20865;SDS011;10593;48.398;10.698;2023-04-03T12:46:58;1.80;;;1.47;;
20865;SDS011;10593;48.398;10.698;2023-04-03T12:49:37;1.97;;;1.77;;
20865;SDS011;10593;48.398;10.698;2023-04-03T12:52:20;1.77;;;1.67;;
20865;SDS011;10593;48.398;10.698;2023-04-03T12:55:27;1.80;;;1.60;;
20865;SDS011;10593;48.398;10.698;2023-04-03T12:57:53;2.53;;;1.67;;
20865;SDS011;10593;48.398;10.698;2023-04-03T13:00:36;2.33;;;2.00;;
20865;SDS011;10593;48.398;10.698;2023-04-03T13:03:04;1.23;;;1.20;;
20865;SDS011;10593;48.398;10.698;2023-04-03T13:05:44;2.07;;;1.53;;
20865;SDS011;10593;48.398;10.698;2023-04-03T13:08:12;1.80;;;1.70;;
20865;SDS011;10593;48.398;10.698;2023-04-03T13:11:01;1.63;;;1.53;;
20865;SDS011;10593;48.398;10.698;2023-04-03T13:13:36;1.70;;;1.53;;
20865;SDS011;10593;48.398;10.698;2023-04-03T13:16:10;1.70;;;1.60;;
20865;SDS011;10593;48.398;10.698;2023-04-03T13:18:37;2.07;;;1.93;;
20865;SDS011;10593;48.398;10.698;2023-04-03T13:23:45;1.40;;;1.30;;
20865;SDS011;10593;48.398;10.698;2023-04-03T13:26:16;1.40;;;1.30;;
20865;SDS011;10593;48.398;10.698;2023-04-03T13:28:46;1.70;;;1.37;;
20865;SDS011;10593;48.398;10.698;2023-04-03T13:33:39;2.20;;;2.00;;
20865;SDS011;10593;48.398;10.698;2023-04-03T13:36:23;1.57;;;1.47;;
20865;SDS011;10593;48.398;10.698;2023-04-03T13:39:03;2.87;;;1.70;;
20865;SDS011;10593;48.398;10.698;2023-04-03T13:41:47;1.43;;;1.20;;
20865;SDS011;10593;48.398;10.698;2023-04-03T13:46:48;1.20;;;1.20;;
20865;SDS011;10593;48.398;10.698;2023-04-03T13:49:42;1.73;;;1.50;;
20865;SDS011;10593;48.398;10.698;2023-04-03T13:52:55;1.43;;;1.33;;
20865;SDS011;10593;48.398;10.698;2023-04-03T13:55:29;1.77;;;1.50;;
20865;SDS011;10593;48.398;10.698;2023-04-03T14:00:35;1.37;;;1.27;;
20865;SDS011;10593;48.398;10.698;2023-04-03T14:03:13;1.10;;;1.10;;
20865;SDS011;10593;48.398;10.698;2023-04-03T14:05:51;1.40;;;1.30;;
20865;SDS011;10593;48.398;10.698;2023-04-03T14:08:18;1.27;;;1.17;;
20865;SDS011;10593;48.398;10.698;2023-04-03T14:10:45;1.77;;;1.50;;
20865;SDS011;10593;48.398;10.698;2023-04-03T14:13:15;1.30;;;1.20;;
20865;SDS011;10593;48.398;10.698;2023-04-03T14:15:44;1.20;;;1.10;;
20865;SDS011;10593;48.398;10.698;2023-04-03T14:18:13;1.30;;;1.20;;
20865;SDS011;10593;48.398;10.698;2023-04-03T14:20:42;1.13;;;1.07;;
20865;SDS011;10593;48.398;10.698;2023-04-03T14:23:09;1.37;;;1.27;;
20865;SDS011;10593;48.398;10.698;2023-04-03T14:25:35;1.47;;;1.30;;
20865;SDS011;10593;48.398;10.698;2023-04-03T14:28:06;1.33;;;0.93;;
20865;SDS011;10593;48.398;10.698;2023-04-03T14:30:45;1.33;;;1.03;;
20865;SDS011;10593;48.398;10.698;2023-04-03T14:33:13;0.90;;;0.90;;
20865;SDS011;10593;48.398;10.698;2023-04-03T14:35:42;1.20;;;1.10;;
20865;SDS011;10593;48.398;10.698;2023-04-03T14:38:13;1.30;;;1.20;;
20865;SDS011;10593;48.398;10.698;2023-04-03T14:40:52;1.07;;;0.97;;
20865;SDS011;10593;48.398;10.698;2023-04-03T14:43:19;1.20;;;1.20;;
20865;SDS011;10593;48.398;10.698;2023-04-03T14:45:45;1.93;;;1.50;;
20865;SDS011;10593;48.398;10.698;2023-04-03T14:48:17;1.23;;;1.13;;
20865;SDS011;10593;48.398;10.698;2023-04-03T14:50:47;1.60;;;1.50;;
20865;SDS011;10593;48.398;10.698;2023-04-03T14:53:16;1.47;;;1.37;;
20865;SDS011;10593;48.398;10.698;2023-04-03T14:55:44;1.40;;;1.30;;
20865;SDS011;10593;48.398;10.698;2023-04-03T14:58:15;0.90;;;0.90;;
20865;SDS011;10593;48.398;10.698;2023-04-03T15:00:43;1.20;;;1.10;;
20865;SDS011;10593;48.398;10.698;2023-04-03T15:03:14;1.20;;;1.10;;
20865;SDS011;10593;48.398;10.698;2023-04-03T15:05:47;1.40;;;1.10;;
20865;SDS011;10593;48.398;10.698;2023-04-03T15:08:21;1.87;;;1.30;;
20865;SDS011;10593;48.398;10.698;2023-04-03T15:10:50;1.60;;;1.30;;
20865;SDS011;10593;48.398;10.698;2023-04-03T15:13:18;1.50;;;1.40;;
20865;SDS011;10593;48.398;10.698;2023-04-03T15:15:45;1.00;;;1.00;;
20865;SDS011;10593;48.398;10.698;2023-04-03T15:18:16;1.30;;;1.20;;
20865;SDS011;10593;48.398;10.698;2023-04-03T15:20:47;1.17;;;1.07;;
20865;SDS011;10593;48.398;10.698;2023-04-03T15:23:13;2.37;;;1.10;;
20865;SDS011;10593;48.398;10.698;2023-04-03T15:25:42;1.00;;;0.90;;
20865;SDS011;10593;48.398;10.698;2023-04-03T15:28:23;1.27;;;1.17;;
20865;SDS011;10593;48.398;10.698;2023-04-03T15:31:00;1.20;;;1.10;;
20865;SDS011;10593;48.398;10.698;2023-04-03T15:33:27;1.10;;;1.00;;
20865;SDS011;10593;48.398;10.698;2023-04-03T15:35:53;1.70;;;1.00;;
20865;SDS011;10593;48.398;10.698;2023-04-03T15:38:19;1.70;;;1.00;;
20865;SDS011;10593;48.398;10.698;2023-04-03T15:40:45;0.90;;;0.90;;
20865;SDS011;10593;48.398;10.698;2023-04-03T15:43:12;0.97;;;0.97;;
20865;SDS011;10593;48.398;10.698;2023-04-03T15:45:39;1.17;;;1.07;;
20865;SDS011;10593;48.398;10.698;2023-04-03T15:48:05;0.93;;;0.90;;
20865;SDS011;10593;48.398;10.698;2023-04-03T15:50:32;1.07;;;0.90;;
20865;SDS011;10593;48.398;10.698;2023-04-03T15:52:59;1.10;;;1.00;;
20865;SDS011;10593;48.398;10.698;2023-04-03T15:55:27;0.93;;;0.93;;
20865;SDS011;10593;48.398;10.698;2023-04-03T15:57:56;1.30;;;1.30;;
20865;SDS011;10593;48.398;10.698;2023-04-03T16:00:22;0.83;;;0.83;;
20865;SDS011;10593;48.398;10.698;2023-04-03T16:02:50;1.17;;;1.00;;
20865;SDS011;10593;48.398;10.698;2023-04-03T16:05:22;1.20;;;0.80;;
20865;SDS011;10593;48.398;10.698;2023-04-03T16:07:49;1.33;;;1.20;;
20865;SDS011;10593;48.398;10.698;2023-04-03T16:10:15;2.73;;;1.20;;
20865;SDS011;10593;48.398;10.698;2023-04-03T16:12:42;1.33;;;0.97;;
20865;SDS011;10593;48.398;10.698;2023-04-03T16:15:08;1.43;;;1.10;;
20865;SDS011;10593;48.398;10.698;2023-04-03T16:17:35;1.07;;;1.00;;
20865;SDS011;10593;48.398;10.698;2023-04-03T16:20:03;1.03;;;0.97;;
20865;SDS011;10593;48.398;10.698;2023-04-03T16:22:31;1.10;;;0.83;;
20865;SDS011;10593;48.398;10.698;2023-04-03T16:24:57;0.90;;;0.90;;
20865;SDS011;10593;48.398;10.698;2023-04-03T16:27:24;3.13;;;1.40;;
20865;SDS011;10593;48.398;10.698;2023-04-03T16:29:53;1.23;;;0.97;;